Time;durP1;ratioP1;P1;durP2;ratioP2;P2;SDS_P1;SDS_P2;PMS_P1;PMS_P2;Temp;Humidity;BMP_temperature;BMP_pressure;BME280_temperature;BME280_humidity;BME280_pressure;Samples;Min_cycle;Max_cycle;Signal;HPM_P1;HPM_P2
2024/03/28 00:02:01;;;;;;;30.35;7.72;;;;;;;12.53;100.00;91893.94;5088733;28;20043;-73
2024/03/28 00:04:27;;;;;;;29.70;9.10;;;;;;;12.65;100.00;91909.94;5088195;28;20024;-73
2024/03/28 00:06:54;;;;;;;31.30;7.10;;;;;;;12.61;100.00;91898.59;5083910;28;20123;-73
2024/03/28 00:09:20;;;;;;;30.38;7.88;;;;;;;12.63;100.00;91903.50;5088119;28;20026;-73
2024/03/28 00:11:45;;;;;;;33.53;8.00;;;;;;;12.59;100.00;91897.31;5084827;28;20036;-73
2024/03/28 00:14:14;;;;;;;28.38;7.60;;;;;;;12.43;100.00;91885.19;5087758;28;20047;-73
2024/03/28 00:16:41;;;;;;;30.38;8.65;;;;;;;12.48;100.00;91904.22;5083618;28;20570;-73
2024/03/28 00:19:06;;;;;;;29.23;8.73;;;;;;;12.35;100.00;91897.78;5087262;28;20032;-73
2024/03/28 00:21:32;;;;;;;32.50;9.57;;;;;;;12.23;100.00;91869.66;5083694;28;20089;-73
2024/03/28 00:23:58;;;;;;;25.05;9.30;;;;;;;12.48;100.00;91886.19;5083757;28;20036;-73
2024/03/28 00:26:23;;;;;;;32.50;9.80;;;;;;;12.51;100.00;91894.19;5083530;28;20040;-73
2024/03/28 00:28:49;;;;;;;35.63;7.28;;;;;;;12.24;100.00;91848.81;5087863;28;20214;-73
2024/03/28 00:31:14;;;;;;;28.45;8.43;;;;;;;12.07;100.00;91849.00;5086317;28;20166;-72
2024/03/28 00:33:40;;;;;;;27.05;8.07;;;;;;;12.37;100.00;91881.00;5086343;28;20405;-73
2024/03/28 00:36:07;;;;;;;24.05;8.18;;;;;;;12.26;100.00;91867.34;5083607;28;20103;-73
2024/03/28 00:38:32;;;;;;;27.38;8.38;;;;;;;12.37;100.00;91875.88;5087233;28;20039;-72
2024/03/28 00:40:58;;;;;;;33.70;6.63;;;;;;;12.51;100.00;91894.19;5085049;28;20029;-73
2024/03/28 00:43:23;;;;;;;31.35;7.55;;;;;;;12.43;100.00;91890.31;5088123;28;20780;-73
2024/03/28 00:45:49;;;;;;;21.48;7.88;;;;;;;12.38;100.00;91890.31;5082491;28;20036;-73
2024/03/28 00:48:15;;;;;;;;;;;;;;;12.59;100.00;91898.06;5088681;28;20043;-73
2024/03/28 00:50:41;;;;;;;26.05;7.45;;;;;;;12.40;100.00;91872.78;5087738;28;20289;-73
2024/03/28 00:53:06;;;;;;;30.67;7.38;;;;;;;12.29;100.00;91861.69;5087449;28;20046;-73
2024/03/28 00:55:35;;;;;;;21.73;7.05;;;;;;;12.54;100.00;91890.34;5084165;28;20516;-73
2024/03/28 00:58:00;;;;;;;29.17;6.35;;;;;;;12.29;100.00;91846.25;5084598;28;20110;-72
2024/03/28 01:00:26;;;;;;;32.33;7.68;;;;;;;12.45;100.00;91843.69;5087921;28;20147;-73
2024/03/28 01:02:51;;;;;;;23.17;6.90;;;;;;;12.48;100.00;91860.44;5084423;28;20040;-73
2024/03/28 01:05:17;;;;;;;27.08;6.97;;;;;;;12.58;100.00;91885.47;5087014;28;20450;-73
2024/03/28 01:07:42;;;;;;;25.05;7.50;;;;;;;12.41;100.00;91871.75;5087721;28;20028;-73
2024/03/28 01:10:09;;;;;;;26.13;6.10;;;;;;;12.63;100.00;91917.16;5086800;28;20040;-73
2024/03/28 01:12:34;;;;;;;23.02;6.88;;;;;;;12.37;100.00;91867.38;5083912;28;20485;-72
2024/03/28 01:15:00;;;;;;;24.75;6.82;;;;;;;12.58;100.00;91903.50;5077517;28;20047;-72
2024/03/28 01:17:25;;;;;;;21.80;6.85;;;;;;;12.24;100.00;91855.75;5083351;28;20380;-73
2024/03/28 01:19:51;;;;;;;25.52;6.43;;;;;;;12.50;100.00;91892.63;5087444;28;20059;-72
2024/03/28 01:22:19;;;;;;;27.45;7.32;;;;;;;12.43;100.00;91881.81;5085269;28;20074;-72
2024/03/28 01:24:44;;;;;;;30.60;7.05;;;;;;;12.35;100.00;91848.84;5085350;28;20028;-72
2024/03/28 01:27:10;;;;;;;25.52;7.05;;;;;;;12.32;100.00;91821.81;5083825;28;20513;-72
2024/03/28 01:29:35;;;;;;;24.73;6.00;;;;;;;12.60;100.00;91831.88;5085316;28;20107;-72
2024/03/28 01:32:02;;;;;;;21.80;6.88;;;;;;;12.41;100.00;91763.59;5086639;28;20077;-72
2024/03/28 01:34:27;;;;;;;20.75;6.72;;;;;;;12.49;100.00;91744.28;5087079;28;20189;-72
2024/03/28 01:36:53;;;;;;;23.45;6.50;;;;;;;12.05;100.00;91626.38;5085399;28;20739;-73
2024/03/28 01:39:19;;;;;;;23.67;7.32;;;;;;;12.41;100.00;91628.94;5084130;28;20046;-73
2024/03/28 01:41:49;;;;;;;26.95;7.93;;;;;;;12.38;100.00;91722.16;5082927;28;20412;-72
2024/03/28 01:44:16;;;;;;;27.88;7.85;;;;;;;12.07;100.00;91678.38;5080776;28;20040;-72
2024/03/28 01:46:41;;;;;;;17.83;6.13;;;;;;;12.25;100.00;91689.97;5069254;28;20041;-72
2024/03/28 01:49:09;;;;;;;21.40;6.55;;;;;;;12.50;100.00;91709.78;5076201;28;20029;-72
2024/03/28 01:51:35;;;;;;;24.63;6.93;;;;;;;12.69;100.00;91728.06;5086025;28;20116;-72
2024/03/28 01:54:01;;;;;;;26.42;6.90;;;;;;;12.68;100.00;91693.03;5085944;28;20024;-72
2024/03/28 01:56:27;;;;;;;34.58;7.05;;;;;;;12.83;100.00;91702.53;5079549;28;20032;-72
2024/03/28 01:58:52;;;;;;;24.55;6.63;;;;;;;12.90;100.00;91704.84;5083661;28;20070;-73
2024/03/28 02:01:18;;;;;;;24.00;6.75;;;;;;;13.16;100.00;91732.38;5084813;28;20481;-72
2024/03/28 02:03:44;;;;;;;26.08;6.90;;;;;;;13.15;100.00;91723.84;5082517;28;20051;-71
2024/03/28 02:06:10;;;;;;;21.20;7.00;;;;;;;13.25;100.00;91743.72;5085379;28;20032;-72
2024/03/28 02:08:35;;;;;;;31.30;6.47;;;;;;;13.02;100.00;91711.53;5080121;28;20038;-72
2024/03/28 02:11:01;;;;;;;24.48;6.00;;;;;;;13.00;100.00;91716.19;5086444;28;20044;-72
2024/03/28 02:13:27;;;;;;;21.13;4.90;;;;;;;12.96;100.00;91703.81;5086067;28;20401;-71
2024/03/28 02:15:52;;;;;;;28.98;8.48;;;;;;;12.97;100.00;91717.47;5083430;28;20037;-72
2024/03/28 02:18:21;;;;;;;22.60;8.15;;;;;;;13.15;100.00;91736.75;5086513;28;20032;-72
2024/03/28 02:20:48;;;;;;;25.75;7.53;;;;;;;13.04;100.00;91735.22;5086233;28;20032;-72
2024/03/28 02:23:15;;;;;;;23.60;7.05;;;;;;;13.03;100.00;91742.22;5089384;28;20035;-72
2024/03/28 02:25:42;;;;;;;28.42;8.20;;;;;;;12.95;100.00;91737.56;5080962;28;20058;-73
2024/03/28 02:28:08;;;;;;;25.90;6.72;;;;;;;12.78;100.00;91720.56;5083249;28;20074;-73
2024/03/28 02:30:33;;;;;;;25.33;8.05;;;;;;;12.86;100.00;91739.91;5083034;28;20051;-72
2024/03/28 02:32:59;;;;;;;23.17;5.90;;;;;;;12.72;100.00;91715.72;5086095;28;21492;-72
2024/03/28 02:35:25;;;;;;;;;;;;;;;12.99;100.00;91750.69;5086824;28;20032;-72
2024/03/28 02:37:50;;;;;;;26.05;6.95;;;;;;;12.79;100.00;91740.19;5084940;28;19928;-72
2024/03/28 02:40:16;;;;;;;24.02;6.63;;;;;;;12.74;100.00;91740.19;5081226;28;20036;-72
2024/03/28 02:42:42;;;;;;;19.80;6.75;;;;;;;12.91;100.00;91757.19;5086282;28;20745;-72
2024/03/28 02:45:07;;;;;;;26.83;7.75;;;;;;;12.83;100.00;91730.88;5078594;28;20070;-72
2024/03/28 02:47:33;;;;;;;29.65;7.18;;;;;;;12.90;100.00;91735.78;5082674;28;20024;-72
2024/03/28 02:49:58;;;;;;;25.48;8.35;;;;;;;12.98;100.00;91731.13;5081976;28;20035;-72
2024/03/28 02:52:25;;;;;;;26.05;7.03;;;;;;;12.36;100.00;91654.69;5082415;28;20043;-72
2024/03/28 02:54:50;;;;;;;20.08;6.65;;;;;;;12.70;100.00;91697.94;5077634;28;20032;-72
2024/03/28 02:57:23;;;;;;;22.85;7.18;;;;;;;12.68;100.00;91705.13;5082080;28;20035;-72
2024/03/28 02:59:49;;;;;;;28.63;7.22;;;;;;;12.79;100.00;91727.31;5081097;28;20516;-72
2024/03/28 03:02:14;;;;;;;20.27;6.63;;;;;;;12.79;100.00;91732.47;5086162;28;20115;-72
2024/03/28 03:04:40;;;;;;;26.52;6.45;;;;;;;12.76;100.00;91725.22;5085518;28;20024;-72
2024/03/28 03:07:05;;;;;;;22.58;7.80;;;;;;;12.77;100.00;91734.50;5081785;28;20123;-72
2024/03/28 03:09:31;;;;;;;22.55;7.20;;;;;;;12.60;100.00;91721.91;5084557;28;20132;-72
2024/03/28 03:11:56;;;;;;;31.38;7.70;;;;;;;12.37;100.00;91697.44;5086082;28;20031;-72
2024/03/28 03:14:22;;;;;;;22.75;5.65;;;;;;;12.64;100.00;91722.91;5085442;28;20036;-72
2024/03/28 03:16:48;;;;;;;;;;;;;;;12.71;100.00;91732.97;5082496;28;20508;-72
2024/03/28 03:19:14;;;;;;;26.30;8.20;;;;;;;12.63;100.00;91733.50;5085948;28;19912;-71
2024/03/28 03:21:40;;;;;;;21.52;6.53;;;;;;;12.48;100.00;91706.72;5085038;28;20035;-71
2024/03/28 03:24:05;;;;;;;26.70;7.45;;;;;;;12.40;100.00;91709.78;5084163;28;20372;-71
2024/03/28 03:26:31;;;;;;;19.50;6.38;;;;;;;12.47;100.00;91717.25;5078690;28;20031;-71
2024/03/28 03:34:37;;;;;;;23.23;6.63;;;;;;;12.85;100.00;91768.50;5086762;28;20110;-71
2024/03/28 03:37:20;;;;;;;20.63;6.22;;;;;;;12.86;100.00;91780.38;5089278;28;20028;-71
2024/03/28 03:39:46;;;;;;;16.42;5.55;;;;;;;12.76;100.00;91773.41;5080015;28;20155;-71
2024/03/28 03:42:14;;;;;;;23.73;6.57;;;;;;;12.91;100.00;91798.41;5089358;28;20863;-72
2024/03/28 03:44:39;;;;;;;22.05;5.72;;;;;;;13.01;100.00;91795.81;5089619;28;20032;-72
2024/03/28 03:47:05;;;;;;;21.55;7.25;;;;;;;13.03;100.00;91791.19;5087984;28;20043;-72
2024/03/28 03:49:31;;;;;;;20.35;6.53;;;;;;;13.13;100.00;91802.50;5084816;28;20441;-72
2024/03/28 03:51:56;;;;;;;19.80;6.72;;;;;;;12.92;100.00;91781.91;5088750;28;20123;-72
2024/03/28 03:54:22;;;;;;;26.00;6.05;;;;;;;13.10;100.00;91803.78;5085564;28;20111;-72
2024/03/28 03:56:47;;;;;;;18.10;5.43;;;;;;;13.01;100.00;91798.38;5084435;28;20397;-72
2024/03/28 03:59:13;;;;;;;27.02;5.60;;;;;;;12.98;100.00;91816.97;5083352;28;20040;-71
2024/03/28 04:01:38;;;;;;;24.80;6.50;;;;;;;13.02;100.00;91825.72;5088473;28;20032;-72
2024/03/28 04:04:04;;;;;;;26.42;6.22;;;;;;;12.77;100.00;91787.84;5083480;28;20036;-72
2024/03/28 04:06:30;;;;;;;17.52;5.13;;;;;;;12.91;100.00;91806.16;5087923;28;20408;-72
2024/03/28 04:08:55;;;;;;;16.85;4.88;;;;;;;12.78;100.00;91797.88;5089130;28;20721;-72
2024/03/28 04:11:21;;;;;;;20.77;6.00;;;;;;;12.94;100.00;91811.56;5084764;28;20036;-72
2024/03/28 04:13:46;;;;;;;16.52;5.43;;;;;;;12.98;99.19;91803.28;5089366;28;20039;-72
2024/03/28 04:16:12;;;;;;;19.75;5.63;;;;;;;13.31;98.69;91837.28;5085599;28;20024;-72
2024/03/28 04:18:37;;;;;;;18.80;5.63;;;;;;;13.07;98.53;91810.25;5088335;28;20592;-72
2024/03/28 04:21:03;;;;;;;24.30;5.93;;;;;;;13.32;98.58;91825.94;5086476;28;20056;-72
2024/03/28 04:23:28;;;;;;;18.92;4.30;;;;;;;13.13;98.37;91802.50;5080264;28;20410;-72
2024/03/28 04:25:55;;;;;;;18.35;4.68;;;;;;;12.98;99.47;91786.03;5081149;28;20490;-72
2024/03/28 04:28:21;;;;;;;19.52;6.68;;;;;;;13.28;99.69;91827.50;5082805;28;20150;-72
2024/03/28 04:30:46;;;;;;;22.48;5.28;;;;;;;12.94;100.00;91795.31;5087580;28;20058;-72
2024/03/28 04:33:12;;;;;;;19.77;6.07;;;;;;;13.10;100.00;91808.94;5086503;28;20766;-72
2024/03/28 04:35:37;;;;;;;20.23;5.38;;;;;;;13.23;100.00;91838.59;5086081;28;20046;-72
2024/03/28 04:38:04;;;;;;;19.17;6.43;;;;;;;13.20;100.00;91832.13;5086145;28;20043;-72
2024/03/28 04:40:29;;;;;;;;;;;;;;;13.25;99.78;91843.50;5088112;28;20020;-72
2024/03/28 04:42:55;;;;;;;17.33;4.70;;;;;;;13.06;99.64;91837.03;5087078;28;19912;-71
2024/03/28 04:45:20;;;;;;;22.42;5.80;;;;;;;13.32;99.96;91864.63;5083614;28;20028;-72
2024/03/28 04:47:47;;;;;;;20.40;5.95;;;;;;;13.13;99.13;91844.53;5087130;28;20036;-72
2024/03/28 04:50:14;;;;;;;20.63;4.68;;;;;;;13.13;99.31;91852.25;5080974;28;20062;-72
2024/03/28 04:52:40;;;;;;;17.60;5.53;;;;;;;13.42;98.16;91894.81;5076220;28;20040;-71
2024/03/28 04:55:06;;;;;;;18.10;4.95;;;;;;;13.43;98.35;91896.34;5074429;28;20043;-72
2024/03/28 04:57:32;;;;;;;15.63;4.72;;;;;;;13.14;98.75;91846.06;5078321;28;20029;-72
2024/03/28 04:59:58;;;;;;;16.95;5.50;;;;;;;13.34;97.24;91904.59;5072494;28;20432;-72
2024/03/28 05:02:23;;;;;;;23.55;5.28;;;;;;;13.47;97.13;91918.06;5070888;28;20032;-72
2024/03/28 05:04:49;;;;;;;22.92;5.18;;;;;;;13.49;97.16;91921.91;5078130;28;20031;-73
2024/03/28 05:07:15;;;;;;;23.50;5.07;;;;;;;13.44;96.35;91919.31;5084136;28;20513;-71
2024/03/28 05:09:53;;;;;;;13.02;4.50;;;;;;;13.45;95.91;91930.38;5069930;28;20078;-72
2024/03/28 05:12:18;;;;;;;11.98;4.18;;;;;;;13.53;95.26;91952.34;5078410;28;20511;-72
2024/03/28 05:14:44;;;;;;;22.10;4.70;;;;;;;13.80;94.60;91979.69;5076982;28;20037;-72
2024/03/28 05:17:10;;;;;;;15.10;5.78;;;;;;;13.63;93.22;91939.44;5072044;28;20064;-72
2024/03/28 05:19:36;;;;;;;17.67;5.50;;;;;;;13.93;92.67;91963.66;5072416;28;20502;-72
2024/03/28 05:22:04;;;;;;;24.00;6.25;;;;;;;13.80;91.35;91948.72;5077160;28;20024;-72
2024/03/28 05:24:30;;;;;;;24.70;6.63;;;;;;;14.33;89.50;92022.44;5070230;28;20032;-72
2024/03/28 05:26:56;;;;;;;22.25;6.50;;;;;;;14.39;88.76;92034.31;5075566;28;20030;-73
2024/03/28 05:29:21;;;;;;;;;;;;;;;14.48;87.61;92043.09;5080670;28;20051;-73
2024/03/28 05:31:47;;;;;;;16.42;6.75;;;;;;;14.32;88.36;92026.84;5083289;28;19916;-72
2024/03/28 05:34:13;;;;;;;;;;;;;;;14.49;88.11;92042.03;5086369;28;20051;-73
2024/03/28 05:36:39;;;;;;;16.45;4.35;;;;;;;14.41;88.26;92058.09;5083339;28;19919;-73
2024/03/28 05:39:05;;;;;;;22.48;6.43;;;;;;;14.44;90.20;92073.06;5086560;28;20035;-74
2024/03/28 05:41:32;;;;;;;16.52;5.22;;;;;;;14.43;95.87;92089.59;5086569;28;20082;-73
2024/03/28 05:43:58;;;;;;;17.48;6.32;;;;;;;14.21;100.00;92095.06;5083742;28;20046;-73
2024/03/28 05:46:24;;;;;;;18.90;5.93;;;;;;;14.17;100.00;92110.31;5086735;28;20028;-74
2024/03/28 05:48:49;;;;;;;19.00;5.78;;;;;;;13.86;100.00;92085.25;5083042;28;20028;-74
2024/03/28 05:51:15;;;;;;;18.65;6.78;;;;;;;13.66;100.00;92131.66;5080451;28;20040;-74
2024/03/28 05:53:45;;;;;;;33.38;12.65;;;;;;;13.54;100.00;92119.00;5086457;28;20062;-74
2024/03/28 05:56:11;;;;;;;17.67;6.25;;;;;;;13.60;100.00;92110.22;5065930;28;20044;-75
2024/03/28 05:58:36;;;;;;;18.05;4.55;;;;;;;13.22;100.00;92074.25;5069604;28;20498;-74
2024/03/28 06:01:02;;;;;;;22.05;4.95;;;;;;;13.24;100.00;92095.41;5067989;28;20043;-75
2024/03/28 06:03:30;;;;;;;16.02;4.40;;;;;;;13.13;100.00;92120.41;5069954;28;20041;-74
2024/03/28 06:05:56;;;;;;;21.20;6.35;;;;;;;12.91;100.00;92099.94;5082799;28;20162;-74
2024/03/28 06:08:22;;;;;;;15.88;5.93;;;;;;;12.82;100.00;92079.78;5077738;28;20153;-74
2024/03/28 06:10:47;;;;;;;24.23;5.28;;;;;;;12.94;100.00;92131.16;5072705;28;20478;-74
2024/03/28 06:13:13;;;;;;;20.20;5.95;;;;;;;12.63;100.00;92083.84;5069678;28;20028;-74
2024/03/28 06:15:39;;;;;;;21.00;6.72;;;;;;;12.93;100.00;92131.38;5072608;28;20103;-74
2024/03/28 06:18:05;;;;;;;16.52;6.63;;;;;;;12.89;100.00;92130.34;5062154;28;20048;-74
2024/03/28 06:20:30;;;;;;;21.35;5.10;;;;;;;12.69;100.00;92108.59;5054610;28;20033;-74
2024/03/28 06:22:56;;;;;;;16.27;4.63;;;;;;;12.66;100.00;92112.44;5049903;28;20083;-74
2024/03/28 06:25:21;;;;;;;16.73;4.72;;;;;;;12.51;100.00;92087.34;5053733;28;20466;-73
2024/03/28 06:27:47;;;;;;;18.75;4.20;;;;;;;12.55;100.00;92114.19;5057152;28;20044;-73
2024/03/28 06:30:13;;;;;;;17.98;4.18;;;;;;;12.61;100.00;92147.69;5053367;28;20148;-73
2024/03/28 06:32:38;;;;;;;16.15;4.88;;;;;;;12.51;100.00;92167.22;5053940;28;20036;-73
2024/03/28 06:35:04;;;;;;;10.95;3.85;;;;;;;12.59;100.00;92170.38;5058303;28;20025;-74
2024/03/28 06:37:29;;;;;;;15.10;4.20;;;;;;;12.54;100.00;92174.44;5048425;28;20124;-73
2024/03/28 06:39:55;;;;;;;19.48;3.42;;;;;;;12.27;100.00;92143.63;5050321;28;20035;-73
2024/03/28 06:42:21;;;;;;;13.85;2.90;;;;;;;12.46;100.00;92184.44;5049349;28;20040;-73
2024/03/28 06:44:50;;;;;;;12.90;3.53;;;;;;;12.26;100.00;92168.59;5053819;28;20074;-73
2024/03/28 06:47:16;;;;;;;15.23;3.72;;;;;;;12.51;100.00;92202.50;5049139;28;20083;-73
2024/03/28 06:49:42;;;;;;;;;;;;;;;12.48;100.00;92214.06;5053454;28;20037;-72
2024/03/28 06:52:08;;;;;;;17.45;3.83;;;;;;;12.46;100.00;92215.34;5048686;28;19924;-73
2024/03/28 06:54:34;;;;;;;24.35;4.78;;;;;;;12.27;100.00;92184.81;5052006;28;20115;-72
2024/03/28 06:57:00;;;;;;;21.02;4.60;;;;;;;12.28;100.00;92209.53;5050705;28;20128;-72
2024/03/28 06:59:25;;;;;;;17.73;4.05;;;;;;;12.49;100.00;92231.06;5049066;28;20528;-73
2024/03/28 07:01:51;;;;;;;17.10;6.18;;;;;;;12.26;100.00;92186.59;5053673;28;20039;-73
2024/03/28 07:04:17;;;;;;;18.33;5.18;;;;;;;12.63;100.00;92208.25;5053652;28;20044;-72
2024/03/28 07:06:43;;;;;;;19.35;5.43;;;;;;;13.02;100.00;92253.63;5053581;28;20466;-72
2024/03/28 07:09:09;;;;;;;22.20;4.18;;;;;;;13.16;100.00;92259.13;5052495;28;20117;-73
2024/03/28 07:11:34;;;;;;;24.70;4.38;;;;;;;13.27;100.00;92248.84;5053898;28;20033;-72
2024/03/28 07:14:02;;;;;;;18.45;4.45;;;;;;;13.49;100.00;92254.69;5052653;28;20790;-72
2024/03/28 07:16:28;;;;;;;17.50;3.03;;;;;;;13.83;100.00;92284.50;5055362;28;20085;-73
2024/03/28 07:18:55;;;;;;;28.45;3.60;;;;;;;14.10;98.89;92293.09;5059777;28;20079;-72
2024/03/28 07:21:21;;;;;;;22.75;4.35;;;;;;;14.26;98.71;92289.53;5054881;28;20037;-73
2024/03/28 07:23:47;;;;;;;14.40;3.60;;;;;;;14.49;96.04;92310.00;5052478;28;20033;-73
2024/03/28 07:26:13;;;;;;;20.55;3.65;;;;;;;14.85;95.44;92327.41;5055050;28;20029;-72
2024/03/28 07:28:39;;;;;;;15.15;2.90;;;;;;;15.01;93.99;92312.66;5060917;28;20755;-73
2024/03/28 07:31:05;;;;;;;14.10;4.03;;;;;;;15.31;92.86;92332.56;5051225;28;20025;-73
2024/03/28 07:33:31;;;;;;;23.05;4.00;;;;;;;15.34;91.43;92328.69;5055987;28;20573;-73
2024/03/28 07:35:56;;;;;;;13.88;3.30;;;;;;;15.40;90.08;92299.16;5053683;28;20037;-73
2024/03/28 07:38:22;;;;;;;20.52;3.97;;;;;;;15.84;89.67;92341.00;5052923;28;20091;-73
2024/03/28 07:40:49;;;;;;;19.17;3.22;;;;;;;16.08;88.03;92343.81;5051206;28;20037;-73
2024/03/28 07:43:16;;;;;;;13.73;2.88;;;;;;;16.14;89.50;92339.38;5058403;28;20037;-72
2024/03/28 07:45:42;;;;;;;17.80;3.22;;;;;;;16.07;84.17;92331.13;5056107;28;20032;-73
2024/03/28 07:48:08;;;;;;;17.00;2.78;;;;;;;16.37;85.20;92342.38;5051609;28;20060;-73
2024/03/28 07:50:34;;;;;;;;;;;;;;;16.58;83.99;92381.97;5057118;28;20449;-73
2024/03/28 07:52:59;;;;;;;11.52;3.10;;;;;;;16.54;85.59;92350.59;5052070;28;19932;-72
2024/03/28 07:55:24;;;;;;;18.50;3.25;;;;;;;16.61;82.31;92388.44;5052259;28;20029;-72
2024/03/28 07:57:51;;;;;;;13.95;2.80;;;;;;;16.62;81.41;92389.97;5053865;28;20060;-72
2024/03/28 08:00:17;;;;;;;17.00;3.38;;;;;;;16.39;81.78;92351.44;5054124;28;20053;-72
2024/03/28 08:02:45;;;;;;;20.58;2.92;;;;;;;16.36;80.55;92357.19;5050916;28;20037;-72
2024/03/28 08:05:15;;;;;;;19.35;3.47;;;;;;;16.36;80.81;92367.53;5052806;28;20037;-72
2024/03/28 08:07:40;;;;;;;11.65;3.08;;;;;;;16.44;80.17;92379.19;5052169;28;20463;-72
2024/03/28 08:10:09;;;;;;;17.50;3.53;;;;;;;16.66;78.72;92407.31;5057557;28;20040;-72
2024/03/28 08:12:37;;;;;;;16.15;2.70;;;;;;;16.63;78.83;92400.09;5060554;28;20036;-72
2024/03/28 08:15:05;;;;;;;13.15;3.05;;;;;;;16.71;77.54;92388.34;5057534;28;20028;-72
2024/03/28 08:17:31;;;;;;;16.02;2.92;;;;;;;16.95;77.12;92421.44;5051782;28;20056;-72
2024/03/28 08:19:57;;;;;;;17.13;3.40;;;;;;;17.17;76.26;92418.47;5052489;28;20486;-72
2024/03/28 08:22:23;;;;;;;13.98;2.35;;;;;;;17.11;76.27;92405.81;5054384;28;20044;-72
2024/03/28 08:24:48;;;;;;;15.70;3.13;;;;;;;17.24;76.22;92410.38;5061811;28;20029;-72
2024/03/28 08:27:14;;;;;;;15.18;2.70;;;;;;;17.22;75.35;92392.47;5062486;28;20082;-72
2024/03/28 08:29:40;;;;;;;19.83;2.90;;;;;;;17.34;74.05;92373.97;5050555;28;20060;-72
2024/03/28 08:32:06;;;;;;;11.02;2.33;;;;;;;17.43;74.80;92363.00;5059667;28;20387;-72
2024/03/28 08:34:31;;;;;;;;;;;;;;;17.86;75.25;92385.72;5057382;28;20037;-72
2024/03/28 08:36:57;;;;;;;17.13;3.83;;;;;;;17.79;73.62;92367.88;5052686;28;19919;-72
2024/03/28 08:39:24;;;;;;;11.13;1.98;;;;;;;18.10;73.47;92374.59;5052717;28;20032;-72
2024/03/28 08:41:53;;;;;;;12.73;2.28;;;;;;;18.07;71.82;92352.53;5051881;28;20035;-72
2024/03/28 08:44:20;;;;;;;12.48;2.38;;;;;;;17.84;69.32;92346.25;5056113;28;20041;-73
2024/03/28 08:46:45;;;;;;;13.35;3.58;;;;;;;17.71;69.36;92353.66;5051423;28;20027;-72
2024/03/28 08:49:11;;;;;;;19.08;2.97;;;;;;;17.74;69.83;92353.09;5050101;28;20441;-72
2024/03/28 08:51:37;;;;;;;14.43;2.70;;;;;;;18.14;68.75;92402.34;5051398;28;20044;-72
2024/03/28 08:54:05;;;;;;;12.95;2.78;;;;;;;18.15;69.10;92401.28;5052397;28;20082;-76
2024/03/28 08:56:32;;;;;;;18.80;3.08;;;;;;;18.19;69.48;92396.31;5052039;28;20110;-73
2024/03/28 08:58:58;;;;;;;13.18;2.65;;;;;;;18.38;67.61;92411.19;5050146;28;20053;-73
2024/03/28 09:01:24;;;;;;;14.75;3.08;;;;;;;18.42;65.05;92399.19;5051948;28;20154;-73
2024/03/28 09:03:52;;;;;;;;;;;;;;;18.52;63.78;92408.69;5049825;28;20533;-73
2024/03/28 09:06:19;;;;;;;11.35;2.22;;;;;;;18.23;63.52;92371.31;5052148;28;19912;-73
2024/03/28 09:08:45;;;;;;;15.70;2.85;;;;;;;18.61;62.90;92382.84;5059353;28;20367;-73
2024/03/28 09:11:12;;;;;;;;;;;;;;;18.56;63.04;92394.06;5054776;28;20032;-73
2024/03/28 09:13:38;;;;;;;12.15;2.90;;;;;;;18.32;61.27;92366.28;5052585;28;19917;-74
2024/03/28 09:16:04;;;;;;;10.52;2.92;;;;;;;18.62;60.05;92411.19;5055337;28;20041;-73
2024/03/28 09:18:29;;;;;;;10.27;2.25;;;;;;;18.58;59.92;92389.38;5055240;28;20037;-73
2024/03/28 09:20:55;;;;;;;10.73;2.63;;;;;;;18.74;58.51;92426.38;5055112;28;20379;-73
2024/03/28 09:23:20;;;;;;;11.70;2.15;;;;;;;18.91;57.92;92423.28;5053613;28;20129;-73
2024/03/28 09:25:46;;;;;;;14.60;2.75;;;;;;;19.22;59.70;92417.69;5053632;28;20028;-74
2024/03/28 09:28:13;;;;;;;17.90;3.50;;;;;;;19.31;58.48;92430.06;5052369;28;20068;-73
2024/03/28 09:30:39;;;;;;;12.85;2.83;;;;;;;19.56;56.57;92428.13;5050751;28;20029;-74
2024/03/28 09:33:05;;;;;;;11.32;2.40;;;;;;;19.64;54.57;92435.31;5057670;28;20028;-74
2024/03/28 09:35:30;;;;;;;;;;;;;;;19.44;55.33;92439.00;5049751;28;20043;-73
2024/03/28 09:37:56;;;;;;;18.30;1.98;;;;;;;19.45;54.80;92425.66;5049423;28;19917;-74
2024/03/28 09:40:21;;;;;;;;;;;;;;;19.60;55.42;92442.91;5053112;28;20079;-74
2024/03/28 09:42:47;;;;;;;13.25;2.30;;;;;;;19.57;52.05;92442.69;5050488;28;19913;-74
2024/03/28 09:45:14;;;;;;;10.13;1.85;;;;;;;19.55;52.12;92444.81;5049350;28;20025;-74
2024/03/28 09:47:41;;;;;;;10.85;1.90;;;;;;;19.32;52.36;92424.59;5049376;28;20064;-74
2024/03/28 09:50:11;;;;;;;15.00;2.45;;;;;;;19.09;51.41;92411.38;5049341;28;20693;-74
2024/03/28 09:52:38;;;;;;;11.93;2.42;;;;;;;19.13;49.77;92435.00;5052321;28;20040;-74
2024/03/28 09:55:07;;;;;;;8.20;2.30;;;;;;;18.79;49.76;92413.28;5050301;28;20491;-74
2024/03/28 09:57:33;;;;;;;14.75;2.60;;;;;;;18.93;50.06;92436.78;5051120;28;20144;-73
2024/03/28 09:59:59;;;;;;;14.40;2.42;;;;;;;18.85;48.91;92428.84;5052545;28;20049;-74
2024/03/28 10:02:59;;;;;;;18.98;2.72;;;;;;;19.14;50.40;92436.56;5052719;28;20036;-74
2024/03/28 10:05:26;;;;;;;12.80;2.35;;;;;;;19.34;50.20;92440.69;5045955;28;20056;-74
2024/03/28 10:07:52;;;;;;;10.50;1.48;;;;;;;19.34;48.54;92412.03;5049145;28;20028;-74
2024/03/28 10:10:19;;;;;;;9.52;2.08;;;;;;;19.67;48.76;92441.78;5049852;28;20513;-73
2024/03/28 10:12:54;;;;;;;11.52;2.45;;;;;;;19.58;46.09;92410.41;5057678;28;20044;-73
2024/03/28 10:15:20;;;;;;;9.93;1.90;;;;;;;19.70;47.93;92402.09;5049835;28;20103;-74
2024/03/28 10:17:56;;;;;;;15.02;2.42;;;;;;;19.98;46.67;92421.22;5049007;28;20272;-74
2024/03/28 10:20:24;;;;;;;11.35;2.50;;;;;;;20.18;44.68;92431.56;5049722;28;20123;-75
2024/03/28 10:22:52;;;;;;;12.32;2.22;;;;;;;20.40;45.83;92441.31;5049200;28;20115;-75
2024/03/28 10:25:25;;;;;;;9.88;1.70;;;;;;;20.35;45.32;92439.59;5050625;28;20044;-75
2024/03/28 10:27:57;;;;;;;12.77;2.05;;;;;;;20.23;46.37;92413.22;5052381;28;20055;-75
2024/03/28 10:30:24;;;;;;;6.75;1.63;;;;;;;20.40;46.60;92426.47;5057272;28;20119;-75
2024/03/28 10:33:07;;;;;;;12.38;2.92;;;;;;;20.55;44.45;92427.25;5046446;28;20033;-75
2024/03/28 10:35:34;;;;;;;10.05;2.50;;;;;;;20.68;44.44;92433.50;5061781;28;20064;-75
2024/03/28 10:38:04;;;;;;;13.02;2.75;;;;;;;20.51;44.87;92400.19;5060217;28;20025;-75
2024/03/28 10:40:32;;;;;;;13.43;2.22;;;;;;;20.38;43.36;92396.50;5054418;28;20478;-75
2024/03/28 10:43:01;;;;;;;10.00;3.15;;;;;;;20.62;43.49;92411.97;5053207;28;20505;-74
2024/03/28 10:45:39;;;;;;;8.90;1.90;;;;;;;20.49;42.89;92400.47;5054335;28;20140;-74
2024/03/28 10:48:13;;;;;;;13.80;3.45;;;;;;;20.52;43.76;92394.69;5061758;28;20495;-74
2024/03/28 10:51:14;;;;;;;8.00;2.08;;;;;;;20.85;43.19;92425.09;5051485;28;20021;-75
2024/03/28 10:54:01;;;;;;;13.90;2.65;;;;;;;20.73;42.20;92422.19;5046306;28;20517;-74
2024/03/28 10:56:31;;;;;;;9.73;1.90;;;;;;;20.49;40.86;92384.81;5056399;28;20143;-74
2024/03/28 10:59:00;;;;;;;7.25;1.75;;;;;;;20.29;42.50;92362.53;5055955;28;20127;-74
2024/03/28 11:01:29;;;;;;;9.90;2.25;;;;;;;20.45;41.39;92391.66;5056011;28;20624;-75
2024/03/28 11:03:56;;;;;;;6.80;1.48;;;;;;;20.69;43.57;92375.03;5054411;28;20461;-75
2024/03/28 11:06:24;;;;;;;8.73;1.20;;;;;;;21.11;40.81;92416.72;5052274;28;20886;-75
2024/03/28 11:08:50;;;;;;;6.05;1.08;;;;;;;21.35;41.94;92405.97;5055347;28;20047;-75
2024/03/28 11:11:15;;;;;;;6.35;1.75;;;;;;;21.04;40.85;92366.75;5056947;28;20041;-75
2024/03/28 11:13:41;;;;;;;8.55;1.50;;;;;;;21.33;40.06;92421.19;5051036;28;20057;-74
2024/03/28 11:16:07;;;;;;;;;;;;;;;21.14;39.99;92410.91;5056764;28;20145;-74
2024/03/28 11:18:33;;;;;;;8.85;1.83;;;;;;;21.07;39.56;92402.72;5051820;28;20304;-74
2024/03/28 11:21:06;;;;;;;9.27;1.55;;;;;;;21.09;39.98;92366.63;5053994;28;20029;-75
2024/03/28 11:23:33;;;;;;;9.38;3.38;;;;;;;21.33;41.47;92395.06;5055171;28;20041;-75
2024/03/28 11:26:06;;;;;;;7.57;1.30;;;;;;;21.44;41.28;92389.59;5054675;28;20135;-75
2024/03/28 11:28:32;;;;;;;9.20;1.80;;;;;;;20.67;39.07;92328.34;5054755;28;20029;-75